Fall Rock, Kentucky
Current Conditions -  °F | °C
As of 8:53 PM on Thursday 20 Nov 2014 (Local Time) from KLOZ Reporting Station
Clear Clear  
Wind Chill: 32°   Ceiling: Unl
Heat Index: 32°   Visibility: 10mi
Dew Point: 17°   Wind: 3mph
Humidity: 54%   Direction: 260°W
Pressure: 30.22"   Gusts: NA
Location:  37.22°N, 83.79°W
Report Text: KLOZ 210153Z AUTO 26003KT 10SM CLR 00/M08 A3022 RMK AO2 SLP241 T00001083
Loading
Personal Weather Stations






























Interactive Weather Map New forecast layout! Learn more

10-Day Weather Forecast

Advertisements
Track Severe Weather on mobile